createdAt,value
2022-07-30T00:00:19.702Z,5.07
2022-07-30T00:02:52.493Z,5.37
2022-07-30T00:05:19.630Z,5.17
2022-07-30T00:07:47.399Z,4.87
2022-07-30T00:10:14.608Z,4.33
2022-07-30T00:12:42.002Z,3.97
2022-07-30T00:15:09.361Z,4.00
2022-07-30T00:17:36.488Z,4.17
2022-07-30T00:20:04.076Z,3.67
2022-07-30T00:22:32.125Z,3.57
2022-07-30T00:24:59.358Z,3.90
2022-07-30T00:27:26.879Z,3.80
2022-07-30T00:29:54.025Z,3.50
2022-07-30T00:32:21.198Z,3.63
2022-07-30T00:34:48.367Z,3.60
2022-07-30T00:37:15.514Z,3.50
2022-07-30T00:39:42.652Z,3.67
2022-07-30T00:42:09.815Z,3.50
2022-07-30T00:44:36.973Z,3.57
2022-07-30T00:47:08.271Z,3.70
2022-07-30T00:49:35.460Z,3.73
2022-07-30T00:52:02.660Z,3.70
2022-07-30T00:54:29.784Z,3.20
2022-07-30T00:56:57.034Z,3.40
2022-07-30T00:59:24.263Z,3.40
2022-07-30T01:01:51.460Z,3.53
2022-07-30T01:04:18.625Z,3.30
2022-07-30T01:06:45.782Z,3.40
2022-07-30T01:09:12.928Z,3.40
2022-07-30T01:11:41.228Z,3.30
2022-07-30T01:14:09.566Z,3.43
2022-07-30T01:16:38.004Z,3.47
2022-07-30T01:19:25.870Z,3.43
2022-07-30T01:21:59.920Z,3.53
2022-07-30T01:24:34.223Z,3.53
2022-07-30T01:27:02.603Z,3.70
2022-07-30T01:29:32.706Z,3.50
2022-07-30T01:32:00.720Z,3.47
2022-07-30T01:34:32.253Z,3.37
2022-07-30T01:37:00.009Z,3.60
2022-07-30T01:39:27.811Z,3.87
2022-07-30T01:41:56.516Z,3.23
2022-07-30T01:44:24.996Z,3.70
2022-07-30T01:46:53.430Z,3.83
2022-07-30T01:49:22.648Z,3.60
2022-07-30T01:51:51.699Z,4.03
2022-07-30T01:54:19.493Z,3.50
2022-07-30T01:56:46.893Z,3.40
2022-07-30T01:59:14.661Z,3.60
2022-07-30T02:01:41.893Z,4.07
2022-07-30T02:04:09.021Z,4.00
2022-07-30T02:06:40.796Z,3.60
2022-07-30T02:09:11.118Z,3.60
2022-07-30T02:12:00.732Z,3.50
2022-07-30T02:14:34.850Z,3.50
2022-07-30T02:17:03.923Z,3.63
2022-07-30T02:19:34.608Z,3.47
2022-07-30T02:22:06.841Z,3.87
2022-07-30T02:24:37.395Z,3.50
2022-07-30T02:27:07.438Z,3.97
2022-07-30T02:29:35.709Z,3.47
2022-07-30T02:32:05.807Z,3.83
2022-07-30T02:34:34.697Z,3.90
2022-07-30T02:37:03.493Z,3.63
2022-07-30T02:39:31.576Z,3.77
2022-07-30T02:41:59.757Z,3.50
2022-07-30T02:44:29.160Z,3.80
2022-07-30T02:46:57.190Z,4.00
2022-07-30T02:49:24.898Z,3.73
2022-07-30T02:51:52.441Z,3.60
2022-07-30T02:54:20.799Z,3.33
2022-07-30T02:56:48.668Z,4.00
2022-07-30T02:59:16.864Z,3.87
2022-07-30T03:01:44.424Z,3.50
2022-07-30T03:04:12.119Z,3.70
2022-07-30T03:06:40.363Z,4.00
2022-07-30T03:09:08.064Z,4.00
2022-07-30T03:11:35.584Z,3.90
2022-07-30T03:14:03.293Z,3.90
2022-07-30T03:16:31.738Z,4.10
2022-07-30T03:19:02.443Z,4.23
2022-07-30T03:21:34.776Z,3.73
2022-07-30T03:24:03.397Z,3.60
2022-07-30T03:26:31.045Z,3.80
2022-07-30T03:28:59.015Z,4.20
2022-07-30T03:31:28.482Z,4.17
2022-07-30T03:34:04.559Z,4.00
2022-07-30T03:36:34.087Z,3.80
2022-07-30T03:39:02.130Z,4.40
2022-07-30T03:41:29.438Z,3.90
2022-07-30T03:43:56.949Z,4.23
2022-07-30T03:46:24.761Z,4.30
2022-07-30T03:48:53.126Z,4.50
2022-07-30T03:51:35.404Z,4.03
2022-07-30T03:54:03.131Z,4.23
2022-07-30T03:56:30.324Z,4.40
2022-07-30T03:58:57.565Z,3.87
2022-07-30T04:01:27.906Z,4.00
2022-07-30T04:03:55.284Z,3.97
2022-07-30T04:06:22.520Z,3.90
2022-07-30T04:08:49.638Z,4.03
2022-07-30T04:11:16.770Z,4.40
2022-07-30T04:13:43.894Z,4.17
2022-07-30T04:16:39.049Z,4.00
2022-07-30T04:19:08.957Z,4.53
2022-07-30T04:21:36.922Z,4.00
2022-07-30T04:24:05.609Z,4.27
2022-07-30T04:26:34.504Z,4.10
2022-07-30T04:29:01.932Z,4.43
2022-07-30T04:31:29.690Z,4.53
2022-07-30T04:34:03.013Z,4.03
2022-07-30T04:36:32.617Z,3.77
2022-07-30T04:39:00.734Z,4.50
2022-07-30T04:41:27.961Z,4.30
2022-07-30T04:43:55.130Z,4.20
2022-07-30T04:46:23.283Z,4.47
2022-07-30T04:48:52.398Z,4.23
2022-07-30T04:51:38.290Z,4.50
2022-07-30T04:54:07.367Z,4.20
2022-07-30T04:56:34.668Z,4.13
2022-07-30T04:59:02.221Z,4.33
2022-07-30T05:01:40.135Z,4.33
2022-07-30T05:04:09.115Z,4.00
2022-07-30T05:06:37.418Z,4.43
2022-07-30T05:09:04.640Z,4.40
2022-07-30T05:11:31.850Z,4.57
2022-07-30T05:13:58.974Z,4.20
2022-07-30T05:16:26.338Z,4.40
2022-07-30T05:18:53.585Z,3.90
2022-07-30T05:21:20.728Z,4.70
2022-07-30T05:23:50.395Z,4.80
2022-07-30T05:26:21.503Z,4.00
2022-07-30T05:28:53.922Z,4.70
2022-07-30T05:31:22.594Z,4.77
2022-07-30T05:33:49.789Z,4.50
2022-07-30T05:36:16.917Z,4.50
2022-07-30T05:38:44.061Z,4.60
2022-07-30T05:41:31.734Z,4.33
2022-07-30T05:43:58.363Z,4.27
2022-07-30T05:46:25.829Z,4.37
2022-07-30T05:48:53.080Z,4.40
2022-07-30T05:51:20.909Z,4.40
2022-07-30T05:53:48.181Z,4.40
2022-07-30T05:56:15.525Z,4.37
2022-07-30T05:58:42.652Z,4.60
2022-07-30T06:01:09.862Z,4.53
2022-07-30T06:03:37.107Z,4.63
2022-07-30T06:06:05.325Z,4.70
2022-07-30T06:08:32.814Z,4.83
2022-07-30T06:11:00.017Z,4.93
2022-07-30T06:13:27.232Z,4.60
2022-07-30T06:15:54.457Z,4.80
2022-07-30T06:18:23.172Z,4.80
2022-07-30T06:20:51.839Z,4.80
2022-07-30T06:23:19.344Z,4.87
2022-07-30T06:25:46.478Z,4.87
2022-07-30T06:28:35.981Z,4.43
2022-07-30T06:31:00.857Z,4.83
2022-07-30T06:33:28.034Z,4.60
2022-07-30T06:35:55.172Z,5.00
2022-07-30T06:38:22.577Z,4.70
2022-07-30T06:40:49.720Z,4.70
2022-07-30T06:43:19.003Z,4.87
2022-07-30T06:45:46.113Z,4.70
2022-07-30T06:48:13.395Z,5.10
2022-07-30T06:50:43.993Z,4.97
2022-07-30T06:53:11.231Z,4.93
2022-07-30T06:55:38.370Z,4.57
2022-07-30T06:58:05.564Z,4.90
2022-07-30T07:00:32.680Z,5.10
2022-07-30T07:02:59.831Z,4.60
2022-07-30T07:05:29.053Z,4.50
2022-07-30T07:07:59.702Z,4.63
2022-07-30T07:10:27.384Z,4.40
2022-07-30T07:12:54.729Z,4.73
2022-07-30T07:15:22.311Z,4.70
2022-07-30T07:18:00.565Z,4.70
2022-07-30T07:20:29.518Z,4.80
2022-07-30T07:22:56.663Z,4.70
2022-07-30T07:25:24.968Z,4.80
2022-07-30T07:28:12.324Z,5.00
2022-07-30T07:30:39.404Z,4.47
2022-07-30T07:33:06.686Z,4.57
2022-07-30T07:35:48.512Z,4.53
2022-07-30T07:38:17.607Z,5.13
2022-07-30T07:40:44.748Z,5.00
2022-07-30T07:43:11.886Z,4.40
2022-07-30T07:45:40.346Z,4.80
2022-07-30T07:48:07.613Z,4.57
2022-07-30T07:50:34.922Z,4.60
2022-07-30T07:53:02.059Z,4.67
2022-07-30T07:55:31.706Z,5.30
2022-07-30T07:58:00.794Z,5.30
2022-07-30T08:00:28.070Z,5.23
2022-07-30T08:02:55.245Z,5.47
2022-07-30T08:05:23.453Z,5.30
2022-07-30T08:07:50.990Z,5.20
2022-07-30T08:10:19.039Z,5.20
2022-07-30T08:12:46.172Z,5.20
2022-07-30T08:15:13.404Z,5.53
2022-07-30T08:17:42.031Z,5.27
2022-07-30T08:20:09.744Z,5.30
2022-07-30T08:22:36.968Z,5.13
2022-07-30T08:25:04.644Z,5.33
2022-07-30T08:27:32.187Z,5.10
2022-07-30T08:30:03.066Z,5.93
2022-07-30T08:32:30.195Z,5.83
2022-07-30T08:34:57.328Z,5.50
2022-07-30T08:37:24.555Z,5.30
2022-07-30T08:39:51.773Z,5.70
2022-07-30T08:42:18.994Z,5.37
2022-07-30T08:44:46.689Z,5.57
2022-07-30T08:47:17.502Z,4.90
2022-07-30T08:49:45.302Z,5.47
2022-07-30T08:52:12.464Z,5.40
2022-07-30T08:54:40.743Z,5.27
2022-07-30T08:57:07.934Z,5.10
2022-07-30T08:59:59.524Z,5.00
2022-07-30T09:02:27.510Z,5.23
2022-07-30T09:04:55.115Z,5.23
2022-07-30T09:07:22.316Z,4.93
2022-07-30T09:09:49.543Z,5.27
2022-07-30T09:12:34.882Z,5.10
2022-07-30T09:15:03.315Z,4.60
2022-07-30T09:17:32.905Z,4.83
2022-07-30T09:20:04.146Z,4.40
2022-07-30T09:22:45.208Z,4.47
2022-07-30T09:25:12.400Z,4.60
2022-07-30T09:27:50.047Z,4.47
2022-07-30T09:30:17.628Z,4.60
2022-07-30T09:32:55.223Z,4.80
2022-07-30T09:35:25.361Z,4.83
2022-07-30T09:38:03.098Z,5.30
2022-07-30T09:40:33.183Z,5.13
2022-07-30T09:43:07.669Z,5.00
2022-07-30T09:45:35.231Z,5.23
2022-07-30T09:48:02.961Z,5.30
2022-07-30T09:50:31.043Z,5.83
2022-07-30T09:53:07.260Z,5.57
2022-07-30T09:55:35.539Z,5.80
2022-07-30T09:58:10.238Z,5.87
2022-07-30T10:00:42.383Z,6.00
2022-07-30T10:03:21.780Z,5.63
2022-07-30T10:06:02.963Z,6.07
2022-07-30T10:08:48.132Z,6.20
2022-07-30T10:11:17.192Z,6.07
2022-07-30T10:13:50.973Z,5.73
2022-07-30T10:16:18.451Z,5.60
2022-07-30T10:18:45.709Z,5.97
2022-07-30T10:21:13.356Z,5.83
2022-07-30T10:23:45.059Z,5.83
2022-07-30T10:26:12.578Z,5.50
2022-07-30T10:28:44.601Z,5.53
2022-07-30T10:31:48.364Z,5.50
2022-07-30T10:33:59.474Z,5.33
2022-07-30T10:36:27.479Z,5.40
2022-07-30T10:38:55.808Z,6.07
2022-07-30T10:41:47.332Z,5.33
2022-07-30T10:44:31.714Z,5.00
2022-07-30T10:47:07.728Z,5.50
2022-07-30T10:49:41.315Z,5.80
2022-07-30T10:52:10.499Z,5.10
2022-07-30T10:54:39.577Z,5.07
2022-07-30T10:57:07.107Z,5.43
2022-07-30T10:59:55.510Z,5.40
2022-07-30T11:02:24.416Z,5.63
2022-07-30T11:05:11.861Z,5.50
2022-07-30T11:07:42.554Z,5.30
2022-07-30T11:10:33.568Z,4.97
2022-07-30T11:13:00.769Z,4.77
2022-07-30T11:15:48.780Z,5.33
2022-07-30T11:18:17.376Z,5.13
2022-07-30T11:21:05.799Z,5.00
2022-07-30T11:23:37.414Z,5.20
2022-07-30T11:26:07.067Z,5.00
2022-07-30T11:28:39.169Z,5.43
2022-07-30T11:31:54.455Z,5.30
2022-07-30T11:34:19.446Z,4.93
2022-07-30T11:37:19.322Z,5.23
2022-07-30T11:39:55.701Z,4.97
2022-07-30T11:42:25.778Z,4.40
2022-07-30T11:44:52.950Z,5.10
2022-07-30T11:47:20.583Z,4.97
2022-07-30T11:49:47.748Z,4.37
2022-07-30T11:52:23.154Z,5.00
2022-07-30T11:54:56.520Z,4.73
2022-07-30T11:57:40.006Z,5.10
2022-07-30T12:00:07.502Z,5.30
2022-07-30T12:02:34.635Z,5.00
2022-07-30T12:05:01.875Z,5.13
2022-07-30T12:07:29.073Z,5.13
2022-07-30T12:10:12.237Z,5.10
2022-07-30T12:12:40.200Z,4.90
2022-07-30T12:15:07.703Z,4.77
2022-07-30T12:17:44.824Z,4.27
2022-07-30T12:20:19.201Z,4.57
2022-07-30T12:22:46.484Z,4.13
2022-07-30T12:25:14.435Z,4.43
2022-07-30T12:27:41.647Z,4.00
2022-07-30T12:30:09.327Z,3.90
2022-07-30T12:32:37.627Z,3.90
2022-07-30T12:35:04.954Z,3.90
2022-07-30T12:37:32.138Z,3.50
2022-07-30T12:40:25.555Z,4.00
2022-07-30T12:42:53.681Z,4.67
2022-07-30T12:45:31.284Z,4.33
2022-07-30T12:48:18.420Z,4.77
2022-07-30T12:50:45.538Z,5.17
2022-07-30T12:53:12.868Z,4.97
2022-07-30T12:55:40.836Z,4.70
2022-07-30T12:58:09.092Z,4.73
2022-07-30T13:00:47.071Z,4.07
2022-07-30T13:03:23.782Z,4.63
2022-07-30T13:05:51.843Z,4.10
2022-07-30T13:08:42.823Z,4.73
2022-07-30T13:11:09.968Z,4.23
2022-07-30T13:13:37.097Z,3.90
2022-07-30T13:16:05.321Z,4.00
2022-07-30T13:18:33.347Z,3.70
2022-07-30T13:21:01.290Z,3.20
2022-07-30T13:23:29.816Z,3.27
2022-07-30T13:25:57.219Z,2.70
2022-07-30T13:28:24.959Z,2.80
2022-07-30T13:30:52.184Z,3.53
2022-07-30T13:33:19.305Z,3.10
2022-07-30T13:35:46.553Z,3.27
2022-07-30T13:38:13.724Z,2.73
2022-07-30T13:40:41.386Z,2.60
2022-07-30T13:43:08.624Z,3.10
2022-07-30T13:45:36.445Z,3.10
2022-07-30T13:48:04.000Z,3.17
2022-07-30T13:50:31.417Z,2.90
2022-07-30T13:53:02.316Z,3.10
2022-07-30T13:55:29.940Z,3.00
2022-07-30T13:57:57.230Z,3.10
2022-07-30T14:00:24.720Z,3.13
2022-07-30T14:02:52.111Z,2.97
2022-07-30T14:05:19.291Z,3.83
2022-07-30T14:07:46.415Z,4.33
2022-07-30T14:10:13.650Z,4.00
2022-07-30T14:12:40.980Z,4.60
2022-07-30T14:15:09.686Z,4.20
2022-07-30T14:17:36.960Z,4.13
2022-07-30T14:20:04.493Z,3.73
2022-07-30T14:22:31.623Z,4.80
2022-07-30T14:25:00.230Z,5.30
2022-07-30T14:27:27.354Z,4.47
2022-07-30T14:29:54.496Z,2.77
2022-07-30T14:32:21.619Z,3.00
2022-07-30T14:34:50.617Z,2.40
2022-07-30T14:37:18.071Z,2.40
2022-07-30T14:39:45.202Z,2.30
2022-07-30T14:42:12.371Z,2.17
2022-07-30T14:44:39.492Z,2.27
2022-07-30T14:47:07.020Z,2.27
2022-07-30T14:49:34.440Z,2.10
2022-07-30T14:52:01.621Z,2.30
2022-07-30T14:54:28.793Z,2.20
2022-07-30T14:56:58.391Z,2.40
2022-07-30T14:59:27.429Z,2.23
2022-07-30T15:01:55.385Z,2.20
2022-07-30T15:04:22.737Z,2.20
2022-07-30T15:06:50.063Z,2.20
2022-07-30T15:09:17.177Z,1.93
2022-07-30T15:12:07.708Z,1.97
2022-07-30T15:14:31.543Z,2.30
2022-07-30T15:17:03.859Z,2.00
2022-07-30T15:19:31.532Z,1.60
2022-07-30T15:21:59.166Z,1.90
2022-07-30T15:24:26.990Z,1.77
2022-07-30T15:26:55.833Z,1.80
2022-07-30T15:29:24.143Z,1.90
2022-07-30T15:31:51.614Z,1.67
2022-07-30T15:34:18.749Z,2.20
2022-07-30T15:36:46.025Z,1.90
2022-07-30T15:39:13.456Z,1.87
2022-07-30T15:41:42.708Z,1.63
2022-07-30T15:44:09.835Z,1.57
2022-07-30T15:46:37.036Z,1.87
2022-07-30T15:49:04.302Z,2.00
2022-07-30T15:51:32.676Z,2.10
2022-07-30T15:53:59.855Z,1.80
2022-07-30T15:56:28.291Z,1.90
2022-07-30T15:58:55.544Z,2.10
2022-07-30T16:01:29.741Z,1.97
2022-07-30T16:03:57.094Z,2.00
2022-07-30T16:06:24.243Z,2.00
2022-07-30T16:08:51.395Z,2.03
2022-07-30T16:11:18.645Z,2.00
2022-07-30T16:13:46.114Z,1.70
2022-07-30T16:16:13.236Z,1.87
2022-07-30T16:18:40.393Z,1.77
2022-07-30T16:21:07.664Z,1.70
2022-07-30T16:23:36.580Z,1.90
2022-07-30T16:26:04.376Z,1.90
2022-07-30T16:28:31.672Z,1.67
2022-07-30T16:30:59.019Z,1.70
2022-07-30T16:33:26.312Z,1.50
2022-07-30T16:35:53.445Z,1.53
2022-07-30T16:38:23.095Z,1.53
2022-07-30T16:40:50.371Z,1.60
2022-07-30T16:43:19.883Z,1.60
2022-07-30T16:45:47.558Z,1.67
2022-07-30T16:48:14.895Z,1.63
2022-07-30T16:50:42.846Z,1.57
2022-07-30T16:53:14.162Z,1.57
2022-07-30T16:55:41.859Z,1.63
2022-07-30T16:58:09.131Z,1.70
2022-07-30T17:00:36.316Z,2.90
2022-07-30T17:03:03.651Z,3.43
2022-07-30T17:05:30.810Z,2.70
2022-07-30T17:07:58.086Z,1.77
2022-07-30T17:10:26.493Z,1.67
2022-07-30T17:12:54.122Z,1.80
2022-07-30T17:15:32.382Z,1.53
2022-07-30T17:18:00.227Z,1.70
2022-07-30T17:20:27.452Z,1.87
2022-07-30T17:22:56.174Z,1.80
2022-07-30T17:25:27.199Z,1.70
2022-07-30T17:27:57.849Z,1.87
2022-07-30T17:30:25.468Z,1.67
2022-07-30T17:32:52.765Z,1.80
2022-07-30T17:35:20.544Z,1.80
2022-07-30T17:37:47.805Z,1.70
2022-07-30T17:40:28.678Z,1.90
2022-07-30T17:43:03.385Z,1.80
2022-07-30T17:45:31.345Z,1.80
2022-07-30T17:47:58.603Z,1.90
2022-07-30T17:50:25.843Z,1.70
2022-07-30T17:52:53.040Z,1.90
2022-07-30T17:55:20.205Z,1.70
2022-07-30T17:57:47.354Z,1.80
2022-07-30T18:00:14.939Z,1.80
2022-07-30T18:02:42.091Z,1.53
2022-07-30T18:05:10.575Z,1.80
2022-07-30T18:07:38.493Z,1.90
2022-07-30T18:10:05.901Z,2.30
2022-07-30T18:12:34.299Z,2.70
2022-07-30T18:15:05.019Z,2.70
2022-07-30T18:17:32.150Z,3.37
2022-07-30T18:19:59.321Z,3.67
2022-07-30T18:22:29.250Z,4.10
2022-07-30T18:24:57.259Z,4.70
2022-07-30T18:27:24.400Z,4.97
2022-07-30T18:29:51.581Z,4.83
2022-07-30T18:32:18.761Z,4.60
2022-07-30T18:34:45.907Z,4.60
2022-07-30T18:37:13.061Z,4.73
2022-07-30T18:39:40.205Z,4.80
2022-07-30T18:42:07.571Z,4.63
2022-07-30T18:44:34.864Z,4.83
2022-07-30T18:47:02.264Z,4.97
2022-07-30T18:49:37.999Z,5.27
2022-07-30T18:52:06.318Z,5.13
2022-07-30T18:54:33.790Z,5.53
2022-07-30T18:57:00.973Z,5.67
2022-07-30T18:59:28.120Z,4.83
2022-07-30T19:01:55.298Z,5.00
2022-07-30T19:04:22.470Z,5.30
2022-07-30T19:06:49.737Z,5.23
2022-07-30T19:09:18.098Z,4.93
2022-07-30T19:11:48.560Z,4.90
2022-07-30T19:14:15.741Z,5.40
2022-07-30T19:16:43.739Z,5.70
2022-07-30T19:19:13.511Z,5.07
2022-07-30T19:21:41.237Z,5.50
2022-07-30T19:24:08.800Z,5.20
2022-07-30T19:26:39.278Z,5.20
2022-07-30T19:29:10.013Z,5.23
2022-07-30T19:31:37.279Z,5.80
2022-07-30T19:34:05.107Z,4.93
2022-07-30T19:36:32.258Z,5.43
2022-07-30T19:38:59.435Z,5.40
2022-07-30T19:41:40.327Z,5.87
2022-07-30T19:44:08.118Z,4.90
2022-07-30T19:46:36.553Z,5.47
2022-07-30T19:49:03.745Z,4.90
2022-07-30T19:52:10.417Z,5.50
2022-07-30T19:54:21.145Z,5.37
2022-07-30T19:56:49.010Z,5.53
2022-07-30T19:59:18.261Z,5.37
2022-07-30T20:01:47.799Z,4.77
2022-07-30T20:04:19.109Z,5.33
2022-07-30T20:06:46.409Z,5.40
2022-07-30T20:09:15.059Z,5.57
2022-07-30T20:11:43.400Z,5.47
2022-07-30T20:14:10.731Z,5.57
2022-07-30T20:16:37.916Z,5.47
2022-07-30T20:19:05.500Z,5.33
2022-07-30T20:21:57.031Z,5.60
2022-07-30T20:24:21.108Z,5.20
2022-07-30T20:26:48.377Z,5.70
2022-07-30T20:29:19.520Z,5.70
2022-07-30T20:31:49.797Z,5.67
2022-07-30T20:34:18.141Z,6.63
2022-07-30T20:36:45.477Z,5.27
2022-07-30T20:39:18.391Z,5.93
2022-07-30T20:41:47.038Z,6.13
2022-07-30T20:44:23.408Z,6.13
2022-07-30T20:46:52.616Z,6.03
2022-07-30T20:49:24.114Z,5.80
2022-07-30T20:51:59.202Z,6.03
2022-07-30T20:54:27.229Z,5.97
2022-07-30T20:56:54.757Z,6.17
2022-07-30T20:59:23.695Z,6.03
2022-07-30T21:01:51.264Z,5.97
2022-07-30T21:07:06.039Z,6.60
2022-07-30T21:09:49.877Z,6.60
2022-07-30T21:12:19.625Z,6.53
2022-07-30T21:15:00.193Z,6.23
2022-07-30T21:17:27.350Z,6.57
2022-07-30T21:19:55.586Z,7.00
2022-07-30T21:22:22.808Z,6.50
2022-07-30T21:24:51.089Z,6.30
2022-07-30T21:27:19.063Z,6.17
2022-07-30T21:29:46.403Z,5.77
2022-07-30T21:32:14.962Z,6.27
2022-07-30T21:34:46.313Z,6.20
2022-07-30T21:37:15.738Z,6.20
2022-07-30T21:39:43.023Z,6.37
2022-07-30T21:42:10.283Z,5.90
2022-07-30T21:44:38.098Z,6.43
2022-07-30T21:47:09.988Z,6.20
2022-07-30T21:49:37.839Z,6.50
2022-07-30T21:52:05.486Z,5.50
2022-07-30T21:54:48.290Z,5.87
2022-07-30T21:57:23.154Z,6.07
2022-07-30T21:59:54.956Z,5.90
2022-07-30T22:02:22.572Z,6.13
2022-07-30T22:04:51.151Z,5.77
2022-07-30T22:07:18.652Z,4.93
2022-07-30T22:09:49.075Z,5.43
2022-07-30T22:12:18.348Z,5.33
2022-07-30T22:14:49.403Z,5.10
2022-07-30T22:17:23.391Z,5.30
2022-07-30T22:19:51.723Z,5.30
2022-07-30T22:22:27.738Z,5.27
2022-07-30T22:24:57.357Z,5.30
2022-07-30T22:27:27.009Z,5.77
2022-07-30T22:29:55.577Z,5.60
2022-07-30T22:32:23.358Z,5.67
2022-07-30T22:34:50.790Z,5.57
2022-07-30T22:37:21.160Z,5.37
2022-07-30T22:39:50.934Z,5.60
2022-07-30T22:42:18.880Z,6.03
2022-07-30T22:44:47.323Z,5.60
2022-07-30T22:47:18.794Z,5.90
2022-07-30T22:49:56.748Z,6.20
2022-07-30T22:52:29.196Z,5.30
2022-07-30T22:55:02.183Z,5.60
2022-07-30T22:57:38.130Z,5.63
2022-07-30T23:00:11.074Z,5.27
2022-07-30T23:02:43.234Z,5.67
2022-07-30T23:05:10.953Z,5.70
2022-07-30T23:07:40.465Z,5.00
2022-07-30T23:10:16.994Z,5.47
2022-07-30T23:12:26.730Z,6.03
2022-07-30T23:12:45.709Z,5.37
2022-07-30T23:15:12.941Z,5.33
2022-07-30T23:17:40.385Z,5.30
2022-07-30T23:20:09.732Z,5.77
2022-07-30T23:22:37.410Z,5.37
2022-07-30T23:25:08.351Z,5.50
2022-07-30T23:27:35.467Z,5.57
2022-07-30T23:30:02.867Z,5.57
2022-07-30T23:32:30.130Z,5.67
2022-07-30T23:34:57.514Z,5.50
2022-07-30T23:37:24.743Z,5.63
2022-07-30T23:39:52.957Z,5.63
2022-07-30T23:42:20.131Z,5.57
2022-07-30T23:44:47.321Z,6.00
2022-07-30T23:47:14.617Z,5.40
2022-07-30T23:49:41.751Z,5.77
2022-07-30T23:52:09.634Z,5.53
2022-07-30T23:54:36.803Z,5.43
2022-07-30T23:57:04.365Z,5.77
2022-07-30T23:59:40.946Z,5.33
